Terminal Aerodrome Forecast
Issued by NWS

Home | Current Version | Previous Version | Text Only | Print | Product List | Glossary On
Versions: 1 2 3 4 5 6 7 8 9 10 11 12 13 14 15 16 17 18 19 20 21 22 23
000
FTUS45 KCYS 202341
TAFLAR
TAF
KLAR 202341Z 2100/2124 24015KT P6SM BKN150
     FM210500 27020G35KT P6SM BKN100
     FM211100 29010KT P6SM BKN040
     FM211700 27015G25KT P6SM BKN035=

USA.gov is the U.S. government's official web portal to all federal, state and local government web resources and services.